Time;durP1;ratioP1;P1;durP2;ratioP2;P2;SDS_P1;SDS_P2;PMS_P1;PMS_P2;Temp;Humidity;BMP_temperature;BMP_pressure;BME280_temperature;BME280_humidity;BME280_pressure;Samples;Min_cycle;Max_cycle;Signal;HPM_P1;HPM_P2
2021/06/25 00:00:21;;;;;;;25.63;17.52;;;10.60;99.90;;;;;;4180457;28;20112;-79
2021/06/25 00:02:22;;;;;;;20.73;16.38;;;10.50;99.90;;;;;;4177358;28;20036;-79
2021/06/25 00:04:23;;;;;;;27.05;17.33;;;10.40;99.90;;;;;;4179952;28;20057;-79
2021/06/25 00:06:24;;;;;;;21.55;17.63;;;10.40;99.90;;;;;;4180292;28;20037;-79
2021/06/25 00:08:25;;;;;;;22.95;17.65;;;10.30;99.90;;;;;;4176776;28;20124;-78
2021/06/25 00:10:26;;;;;;;21.35;17.17;;;10.30;99.90;;;;;;4179819;28;20373;-80
2021/06/25 00:12:26;;;;;;;21.35;16.50;;;10.20;99.90;;;;;;4178260;28;20495;-79
2021/06/25 00:14:32;;;;;;;23.15;17.77;;;10.20;99.90;;;;;;4180416;28;20037;-80
2021/06/25 00:16:39;;;;;;;23.30;17.98;;;10.20;99.90;;;;;;4178791;28;20120;-79
2021/06/25 00:18:45;;;;;;;22.38;17.95;;;10.20;99.90;;;;;;4168879;28;20045;-79
2021/06/25 00:20:46;;;;;;;26.77;19.67;;;10.20;99.90;;;;;;4177696;28;20129;-80
2021/06/25 00:22:47;;;;;;;27.60;19.05;;;10.30;99.90;;;;;;4179862;28;20462;-79
2021/06/25 00:24:53;;;;;;;25.38;19.38;;;10.20;99.90;;;;;;4180249;28;20688;-80
2021/06/25 00:26:54;;;;;;;32.05;19.30;;;10.20;99.90;;;;;;4178727;28;20082;-79
2021/06/25 00:28:55;;;;;;;26.10;18.42;;;10.10;99.90;;;;;;4178653;28;20041;-80
2021/06/25 00:30:55;;;;;;;29.85;20.70;;;10.00;99.90;;;;;;4178936;28;20029;-80
2021/06/25 00:32:58;;;;;;;24.38;18.77;;;10.00;99.90;;;;;;4165930;28;20404;-80
2021/06/25 00:34:59;;;;;;;24.45;18.90;;;10.00;99.90;;;;;;4175720;28;20035;-80
2021/06/25 00:37:00;;;;;;;26.52;18.55;;;10.10;99.90;;;;;;4178594;28;20033;-80
2021/06/25 00:39:01;;;;;;;25.75;19.23;;;10.00;99.90;;;;;;4172899;28;20054;-80
2021/06/25 00:41:01;;;;;;;29.95;19.42;;;9.90;99.90;;;;;;4177423;28;20040;-81
2021/06/25 00:43:03;;;;;;;25.20;19.25;;;9.80;99.90;;;;;;4180355;28;20033;-80
2021/06/25 00:45:18;;;;;;;29.20;21.45;;;9.70;99.90;;;;;;4178628;28;20017;-80
2021/06/25 00:47:18;;;;;;;27.50;20.45;;;9.60;99.90;;;;;;4164696;28;20034;-80
2021/06/25 00:49:20;;;;;;;30.92;20.60;;;9.60;99.90;;;;;;4179989;28;20067;-80
2021/06/25 00:51:23;;;;;;;27.48;20.80;;;9.60;99.90;;;;;;4178665;28;20116;-79
2021/06/25 00:53:24;;;;;;;31.55;20.45;;;9.60;99.90;;;;;;4180407;28;20468;-78
2021/06/25 00:55:43;;;;;;;27.85;20.70;;;9.70;99.90;;;;;;4181507;28;20041;-79
2021/06/25 00:57:52;;;;;;;29.95;21.63;;;9.70;99.90;;;;;;4182074;28;20037;-80
2021/06/25 00:59:55;;;;;;;31.63;21.25;;;9.70;99.90;;;;;;4181526;28;20037;-80
2021/06/25 01:02:02;;;;;;;31.17;20.42;;;9.70;99.90;;;;;;4181634;28;20042;-79
2021/06/25 01:04:04;;;;;;;28.15;18.95;;;9.60;99.90;;;;;;4175214;28;20048;-80
2021/06/25 01:06:05;;;;;;;27.75;20.98;;;9.60;99.90;;;;;;4181473;28;20021;-79
2021/06/25 01:08:09;;;;;;;28.20;20.20;;;9.50;99.90;;;;;;4181265;28;20089;-80
2021/06/25 01:10:16;;;;;;;29.38;19.27;;;9.50;99.90;;;;;;4181654;28;20033;-80
2021/06/25 01:12:18;;;;;;;27.65;18.27;;;9.40;99.90;;;;;;4181443;28;20124;-78
2021/06/25 01:14:21;;;;;;;24.73;18.85;;;9.30;99.90;;;;;;4181028;28;20037;-79
2021/06/25 01:16:21;;;;;;;28.40;20.67;;;9.10;99.90;;;;;;4182565;28;20033;-79
2021/06/25 01:18:24;;;;;;;30.83;21.50;;;9.00;99.90;;;;;;4181061;28;20094;-79
2021/06/25 01:20:37;;;;;;;27.10;20.60;;;9.00;99.90;;;;;;4182915;28;20090;-79
2021/06/25 01:22:41;;;;;;;29.90;21.08;;;8.90;99.90;;;;;;4168183;28;20040;-79
2021/06/25 01:24:50;;;;;;;35.47;21.17;;;8.80;99.90;;;;;;4181121;28;20033;-79
2021/06/25 01:26:55;;;;;;;31.35;20.60;;;8.80;99.90;;;;;;4183225;28;20075;-79
2021/06/25 01:29:03;;;;;;;30.52;20.88;;;8.60;99.90;;;;;;4181009;28;20037;-79
2021/06/25 01:31:06;;;;;;;31.42;21.30;;;8.60;99.90;;;;;;4181431;28;20029;-79
2021/06/25 01:33:11;;;;;;;28.27;19.23;;;8.50;99.90;;;;;;4181260;28;20033;-80
2021/06/25 01:35:21;;;;;;;27.75;18.27;;;8.40;99.90;;;;;;4173624;28;20033;-79
2021/06/25 01:37:36;;;;;;;28.38;20.60;;;8.40;99.90;;;;;;4175392;28;20537;-79
2021/06/25 01:39:44;;;;;;;29.88;19.98;;;8.30;99.90;;;;;;4174213;28;20059;-79
2021/06/25 01:41:47;;;;;;;36.30;21.48;;;8.30;99.90;;;;;;4178535;28;20103;-79
2021/06/25 01:43:50;;;;;;;35.55;21.38;;;8.30;99.90;;;;;;4186767;28;20041;-80
2021/06/25 01:45:53;;;;;;;33.50;20.10;;;8.20;99.90;;;;;;4175166;28;20037;-79
2021/06/25 01:47:54;;;;;;;31.65;20.75;;;8.20;99.90;;;;;;4172795;28;20029;-78
2021/06/25 01:50:08;;;;;;;39.28;21.35;;;8.20;99.90;;;;;;4175540;28;20053;-79
2021/06/25 01:52:19;;;;;;;34.05;20.42;;;8.20;99.90;;;;;;4189004;28;20033;-78
2021/06/25 01:54:20;;;;;;;36.63;22.85;;;8.20;99.90;;;;;;4174072;28;20041;-78
2021/06/25 01:56:29;;;;;;;36.70;22.77;;;8.20;99.90;;;;;;4176063;28;20037;-78
2021/06/25 01:58:30;;;;;;;34.45;20.98;;;8.10;99.90;;;;;;4194166;28;20032;-79
2021/06/25 02:00:31;;;;;;;38.50;22.83;;;8.10;99.90;;;;;;4167794;28;20481;-78
2021/06/25 02:02:42;;;;;;;41.08;22.83;;;8.10;99.90;;;;;;4170569;28;20080;-79
2021/06/25 02:04:44;;;;;;;40.10;21.75;;;8.20;99.90;;;;;;4177549;28;20438;-79
2021/06/25 02:06:45;;;;;;;34.97;20.27;;;8.20;99.90;;;;;;4176277;28;20035;-79
2021/06/25 02:08:50;;;;;;;46.50;24.55;;;8.20;99.90;;;;;;4175552;28;20030;-80
2021/06/25 02:10:56;;;;;;;46.10;23.58;;;8.30;99.90;;;;;;4174856;28;20040;-79
2021/06/25 02:12:58;;;;;;;43.45;24.02;;;8.30;99.90;;;;;;4175675;28;20361;-78
2021/06/25 02:14:59;;;;;;;43.55;24.15;;;8.30;99.90;;;;;;4176843;28;20041;-78
2021/06/25 02:16:59;;;;;;;41.08;23.02;;;8.30;99.90;;;;;;4176190;28;20029;-79
2021/06/25 02:19:06;;;;;;;44.92;24.50;;;8.20;99.90;;;;;;4175110;28;20399;-79
2021/06/25 02:21:17;;;;;;;38.15;20.42;;;8.10;99.90;;;;;;4173858;28;20037;-79
2021/06/25 02:23:23;;;;;;;42.53;23.10;;;8.10;99.90;;;;;;4174841;28;20476;-79
2021/06/25 02:25:24;;;;;;;42.33;23.88;;;8.10;99.90;;;;;;4172553;28;20037;-78
2021/06/25 02:27:25;;;;;;;44.83;23.90;;;8.10;99.90;;;;;;4178570;28;20083;-79
2021/06/25 02:29:26;;;;;;;41.38;21.13;;;8.10;99.90;;;;;;4179785;28;20423;-79
2021/06/25 02:31:33;;;;;;;41.10;20.13;;;8.10;99.90;;;;;;4177373;28;20025;-79
2021/06/25 02:33:33;;;;;;;41.75;22.20;;;8.10;99.90;;;;;;4181250;28;20032;-79
2021/06/25 02:35:35;;;;;;;42.50;23.88;;;8.10;99.90;;;;;;4174600;28;20457;-79
2021/06/25 02:37:36;;;;;;;41.90;22.40;;;8.00;99.90;;;;;;4169966;28;20134;-79
2021/06/25 02:39:40;;;;;;;49.33;23.48;;;8.00;99.90;;;;;;4178619;28;20088;-79
2021/06/25 02:41:42;;;;;;;41.67;23.45;;;8.00;99.90;;;;;;4179733;28;20040;-80
2021/06/25 02:44:04;;;;;;;41.25;21.75;;;8.10;99.90;;;;;;4179918;28;20136;-80
2021/06/25 02:46:12;;;;;;;43.03;23.65;;;8.10;99.90;;;;;;4179958;28;20458;-80
2021/06/25 02:48:14;;;;;;;41.17;23.05;;;8.20;99.90;;;;;;4181100;28;20056;-79
2021/06/25 02:50:16;;;;;;;45.78;23.58;;;8.20;99.90;;;;;;4181677;28;20029;-80
2021/06/25 02:52:17;;;;;;;55.80;25.27;;;8.30;99.90;;;;;;4180220;28;20029;-79
2021/06/25 02:54:19;;;;;;;48.55;22.88;;;8.40;99.90;;;;;;4181155;28;20029;-80
2021/06/25 02:56:30;;;;;;;52.22;26.80;;;8.50;99.90;;;;;;4180338;28;20120;-80
2021/06/25 02:58:31;;;;;;;51.28;26.50;;;8.60;99.90;;;;;;4179867;28;20025;-80
2021/06/25 03:00:33;;;;;;;51.80;26.95;;;8.70;99.90;;;;;;4179698;28;20071;-80
2021/06/25 03:02:34;;;;;;;53.10;26.25;;;8.80;99.90;;;;;;4179758;28;20041;-81
2021/06/25 03:04:36;;;;;;;56.53;26.73;;;8.80;99.90;;;;;;4168449;28;20619;-80
2021/06/25 03:06:37;;;;;;;60.22;27.63;;;8.90;99.90;;;;;;4166984;28;20040;-80
2021/06/25 03:08:38;;;;;;;56.10;29.30;;;9.00;99.90;;;;;;4179677;28;20387;-80
2021/06/25 03:10:42;;;;;;;52.88;27.85;;;9.10;99.90;;;;;;4181158;28;20025;-80
2021/06/25 03:12:44;;;;;;;56.88;28.90;;;9.20;99.90;;;;;;4179940;28;20029;-80
2021/06/25 03:14:45;;;;;;;52.05;28.63;;;9.20;99.90;;;;;;4179447;28;20033;-80
2021/06/25 03:16:48;;;;;;;57.30;30.55;;;9.30;99.90;;;;;;4180403;28;20102;-81
2021/06/25 03:18:48;;;;;;;57.95;27.10;;;9.40;99.90;;;;;;4165922;28;20408;-80
2021/06/25 03:20:55;;;;;;;55.08;29.33;;;9.40;99.90;;;;;;4180917;28;20029;-80
2021/06/25 03:23:01;;;;;;;60.45;31.13;;;9.50;99.90;;;;;;4179798;28;20033;-80
2021/06/25 03:25:02;;;;;;;52.67;29.27;;;9.60;99.90;;;;;;4179078;28;20473;-81
2021/06/25 03:27:05;;;;;;;58.33;28.67;;;9.60;99.90;;;;;;4179088;28;20441;-81
2021/06/25 03:29:12;;;;;;;60.70;30.92;;;9.70;99.90;;;;;;4180665;28;20025;-80
2021/06/25 03:31:13;;;;;;;54.33;27.88;;;9.80;99.90;;;;;;4179063;28;20037;-80
2021/06/25 03:33:25;;;;;;;53.17;29.63;;;9.90;99.90;;;;;;4179071;28;20125;-80
2021/06/25 03:35:25;;;;;;;58.67;29.67;;;10.00;99.90;;;;;;4180605;28;20142;-80
2021/06/25 03:37:27;;;;;;;58.03;30.88;;;10.00;99.90;;;;;;4179428;28;20048;-81
2021/06/25 03:39:28;;;;;;;53.05;31.02;;;10.10;99.90;;;;;;4179143;28;20036;-81
2021/06/25 03:41:34;;;;;;;54.58;31.38;;;10.20;99.90;;;;;;4180035;28;20045;-81
2021/06/25 03:43:44;;;;;;;54.67;30.10;;;10.30;99.90;;;;;;4179435;28;20127;-80
2021/06/25 03:45:45;;;;;;;58.58;31.15;;;10.40;99.90;;;;;;4180081;28;20037;-79
2021/06/25 03:47:47;;;;;;;49.00;28.73;;;10.40;99.90;;;;;;4179157;28;20082;-82
2021/06/25 03:49:47;;;;;;;53.42;30.65;;;10.50;99.90;;;;;;4179151;28;20041;-81
2021/06/25 03:52:03;;;;;;;47.15;30.02;;;10.50;99.90;;;;;;4179154;28;20458;-81
2021/06/25 03:54:04;;;;;;;48.22;29.10;;;10.60;99.90;;;;;;4179168;28;20039;-81
2021/06/25 03:56:15;;;;;;;49.28;29.25;;;10.70;99.90;;;;;;4179262;28;20033;-80
2021/06/25 03:58:16;;;;;;;50.92;31.05;;;10.70;99.90;;;;;;4178892;28;20083;-81
2021/06/25 04:00:19;;;;;;;48.92;30.38;;;10.80;99.90;;;;;;4179162;28;20422;-81
2021/06/25 04:02:20;;;;;;;50.38;30.65;;;10.80;99.90;;;;;;4179480;28;20484;-80
2021/06/25 04:04:27;;;;;;;45.67;30.40;;;10.90;99.90;;;;;;4179709;28;20049;-80
2021/06/25 04:06:38;;;;;;;46.22;30.90;;;10.90;99.90;;;;;;4179179;28;20064;-81
2021/06/25 04:08:39;;;;;;;42.05;28.95;;;11.00;99.90;;;;;;4179030;28;20029;-80
2021/06/25 04:10:39;;;;;;;44.08;29.23;;;11.00;99.90;;;;;;4179168;28;20089;-79
2021/06/25 04:12:40;;;;;;;47.42;30.52;;;11.10;99.90;;;;;;4179232;28;20033;-79
2021/06/25 04:14:41;;;;;;;46.33;29.83;;;11.20;99.90;;;;;;4178884;28;20029;-80
2021/06/25 04:16:48;;;;;;;41.70;28.75;;;11.30;99.90;;;;;;4178912;28;20469;-80
2021/06/25 04:18:49;;;;;;;45.03;31.77;;;11.50;99.90;;;;;;4179815;28;20045;-81
2021/06/25 04:21:00;;;;;;;41.15;29.45;;;11.60;99.90;;;;;;4180179;28;20036;-80
2021/06/25 04:23:03;;;;;;;37.15;28.23;;;11.70;99.90;;;;;;4178975;28;20460;-81
2021/06/25 04:25:17;;;;;;;43.55;29.48;;;11.70;99.90;;;;;;4179064;28;20022;-80
2021/06/25 04:27:18;;;;;;;;;;;11.80;99.90;;;;;;4166675;28;20036;-79
2021/06/25 04:29:19;;;;;;;41.78;27.90;;;11.80;99.90;;;;;;4182142;28;19988;-79
2021/06/25 04:31:22;;;;;;;43.70;30.05;;;11.80;99.90;;;;;;4182452;28;20388;-79
2021/06/25 04:33:24;;;;;;;42.08;27.77;;;11.90;99.90;;;;;;4182405;28;20091;-79
2021/06/25 04:35:27;;;;;;;44.58;28.02;;;11.90;99.90;;;;;;4182242;28;20039;-80
2021/06/25 04:37:29;;;;;;;46.88;30.40;;;12.00;99.90;;;;;;4168347;28;20506;-81
2021/06/25 04:39:31;;;;;;;40.78;28.42;;;12.00;99.90;;;;;;4181872;28;20033;-81
2021/06/25 04:41:38;;;;;;;39.60;29.02;;;12.00;99.90;;;;;;4183078;28;20029;-79
2021/06/25 04:43:43;;;;;;;39.15;28.52;;;12.00;99.90;;;;;;4183806;28;20052;-79
2021/06/25 04:45:46;;;;;;;45.08;30.50;;;12.10;99.90;;;;;;4182320;28;20032;-80
2021/06/25 04:47:59;;;;;;;41.20;30.10;;;12.00;99.90;;;;;;4181950;28;20163;-79
2021/06/25 04:50:00;;;;;;;42.50;30.57;;;12.00;99.90;;;;;;4165379;28;20480;-79
2021/06/25 04:52:00;;;;;;;43.85;30.95;;;12.10;99.90;;;;;;4171249;28;20346;-79
2021/06/25 04:54:01;;;;;;;42.30;30.35;;;12.10;99.90;;;;;;4173535;28;20029;-78
2021/06/25 04:56:17;;;;;;;41.58;30.70;;;12.20;99.90;;;;;;4175911;28;20029;-79
2021/06/25 04:58:18;;;;;;;41.72;29.25;;;12.30;99.90;;;;;;4181578;28;20467;-79
2021/06/25 05:00:22;;;;;;;42.15;30.50;;;12.30;99.90;;;;;;4181776;28;20029;-79
2021/06/25 05:02:22;;;;;;;44.30;30.60;;;12.40;99.90;;;;;;4181528;28;20032;-79
2021/06/25 05:04:27;;;;;;;39.45;30.55;;;12.50;99.90;;;;;;4181455;28;20071;-79
2021/06/25 05:06:34;;;;;;;42.00;31.60;;;12.60;99.90;;;;;;4181496;28;20037;-79
2021/06/25 05:08:37;;;;;;;44.97;32.42;;;12.70;99.90;;;;;;4167412;28;20045;-78
2021/06/25 05:10:41;;;;;;;43.25;32.55;;;12.80;99.90;;;;;;4181502;28;20541;-79
2021/06/25 05:12:42;;;;;;;41.63;32.67;;;12.90;99.90;;;;;;4171039;28;20045;-81
2021/06/25 05:14:44;;;;;;;41.63;31.60;;;12.90;99.90;;;;;;4174480;28;20040;-81
2021/06/25 05:16:46;;;;;;;45.00;32.45;;;13.00;99.90;;;;;;4174433;28;20504;-79
2021/06/25 05:18:57;;;;;;;37.25;30.27;;;13.10;99.90;;;;;;4177119;28;20064;-81
2021/06/25 05:20:58;;;;;;;46.47;29.77;;;13.20;99.90;;;;;;4178281;28;20049;-80
2021/06/25 05:22:59;;;;;;;40.30;28.15;;;13.20;99.90;;;;;;4176681;28;20040;-83
2021/06/25 05:25:15;;;;;;;41.03;28.75;;;13.20;99.90;;;;;;4173269;28;20037;-81
2021/06/25 05:27:18;;;;;;;34.35;28.08;;;13.40;99.90;;;;;;4173276;28;20504;-81
2021/06/25 05:29:28;;;;;;;34.78;28.50;;;13.30;99.90;;;;;;4172988;28;20084;-80
2021/06/25 05:31:30;;;;;;;40.63;29.23;;;13.30;99.90;;;;;;4187295;28;20024;-83
2021/06/25 05:33:32;;;;;;;44.28;30.38;;;13.30;99.90;;;;;;4173047;28;20040;-84
2021/06/25 05:35:34;;;;;;;33.75;27.75;;;13.30;99.90;;;;;;4171730;28;20034;-83
2021/06/25 05:37:35;;;;;;;34.17;26.95;;;13.40;99.90;;;;;;4169480;28;20396;-82
2021/06/25 05:39:35;;;;;;;37.08;27.95;;;13.60;99.90;;;;;;4171839;28;20124;-81
2021/06/25 05:41:38;;;;;;;32.70;26.73;;;13.70;99.90;;;;;;4174043;28;20029;-80
2021/06/25 05:43:39;;;;;;;33.00;26.60;;;13.80;99.90;;;;;;4171082;28;20029;-81
2021/06/25 05:45:41;;;;;;;31.58;25.17;;;13.90;99.90;;;;;;4176670;28;20082;-81
2021/06/25 05:47:42;;;;;;;29.00;23.55;;;14.00;99.90;;;;;;4181090;28;20079;-81
2021/06/25 05:49:49;;;;;;;27.80;22.38;;;14.20;99.90;;;;;;4179575;28;20476;-81
2021/06/25 05:52:00;;;;;;;31.30;26.63;;;14.30;99.90;;;;;;4169357;28;20024;-80
2021/06/25 05:54:02;;;;;;;31.30;23.88;;;14.30;99.90;;;;;;4182500;28;20029;-81
2021/06/25 05:56:07;;;;;;;31.67;25.38;;;14.50;99.90;;;;;;4180259;28;20075;-80
2021/06/25 05:58:08;;;;;;;31.00;24.92;;;14.60;99.90;;;;;;4181605;28;20030;-81
2021/06/25 06:00:18;;;;;;;27.52;23.60;;;14.80;99.90;;;;;;4170360;28;20029;-81
2021/06/25 06:02:30;;;;;;;30.65;24.33;;;14.90;99.90;;;;;;4179415;28;20044;-83
2021/06/25 06:04:32;;;;;;;27.85;23.85;;;15.10;99.90;;;;;;4176576;28;20037;-81
2021/06/25 06:06:34;;;;;;;27.70;21.70;;;15.20;99.90;;;;;;4177817;28;20140;-81
2021/06/25 06:08:37;;;;;;;26.38;23.08;;;15.60;99.90;;;;;;4171480;28;20041;-80
2021/06/25 06:10:42;;;;;;;26.30;22.08;;;15.80;99.90;;;;;;4174487;28;20036;-80
2021/06/25 06:12:46;;;;;;;32.20;23.95;;;16.00;99.90;;;;;;4176375;28;20132;-81
2021/06/25 06:14:53;;;;;;;25.58;19.92;;;16.00;99.90;;;;;;4164421;28;20022;-81
2021/06/25 06:16:54;;;;;;;26.95;21.27;;;16.00;99.90;;;;;;4176113;28;20116;-81
2021/06/25 06:18:56;;;;;;;28.85;21.48;;;15.80;99.90;;;;;;4179698;28;20037;-81
2021/06/25 06:21:03;;;;;;;27.50;21.37;;;15.70;99.90;;;;;;4180636;28;20033;-81
2021/06/25 06:32:52;;;;;;;26.55;21.83;;;16.50;99.90;;;;;;4179052;28;20115;-81
2021/06/25 06:35:00;;;;;;;25.25;20.38;;;16.50;99.90;;;;;;4180212;28;20128;-81
2021/06/25 06:37:02;;;;;;;27.48;22.85;;;16.20;99.90;;;;;;4179661;28;20476;-82
2021/06/25 06:39:05;;;;;;;25.75;21.42;;;17.10;99.90;;;;;;4178622;28;20523;-82
2021/06/25 06:41:14;;;;;;;28.80;23.40;;;16.80;99.90;;;;;;4171196;28;20137;-83
2021/06/25 06:43:15;;;;;;;32.30;24.98;;;16.80;99.90;;;;;;4177954;28;20523;-81
2021/06/25 06:45:21;;;;;;;30.60;24.10;;;17.00;99.90;;;;;;4172173;28;20029;-82
2021/06/25 06:47:22;;;;;;;29.90;23.70;;;16.70;99.90;;;;;;4173322;28;20033;-81
2021/06/25 06:49:23;;;;;;;31.23;23.17;;;17.20;99.90;;;;;;4181238;28;20063;-81
2021/06/25 06:51:24;;;;;;;32.42;23.95;;;17.30;99.90;;;;;;4178936;28;20139;-82
2021/06/25 06:53:24;;;;;;;31.52;23.70;;;17.40;99.90;;;;;;4179190;28;20161;-80
2021/06/25 06:55:26;;;;;;;34.53;24.15;;;17.50;99.90;;;;;;4173907;28;20036;-78
2021/06/25 06:57:27;;;;;;;30.83;24.20;;;17.60;99.90;;;;;;4179419;28;20029;-80
2021/06/25 06:59:35;;;;;;;35.78;25.17;;;17.80;99.90;;;;;;4176318;28;20040;-79
2021/06/25 07:01:40;;;;;;;30.50;25.13;;;17.80;99.90;;;;;;4179141;28;20494;-79
2021/06/25 07:03:48;;;;;;;27.75;23.13;;;17.70;99.90;;;;;;4177120;28;20036;-79
2021/06/25 07:05:52;;;;;;;31.35;24.92;;;17.90;99.90;;;;;;4178052;28;20025;-79
2021/06/25 07:07:54;;;;;;;33.83;25.90;;;17.90;99.90;;;;;;4176763;28;20033;-79
2021/06/25 07:09:54;;;;;;;30.55;24.65;;;17.80;99.90;;;;;;4180652;28;20029;-79
2021/06/25 07:11:55;;;;;;;37.15;26.80;;;18.30;99.90;;;;;;4180570;28;20086;-78
2021/06/25 07:13:56;;;;;;;33.45;26.00;;;17.20;99.90;;;;;;4180864;28;20436;-80
2021/06/25 07:15:57;;;;;;;34.65;27.90;;;17.60;99.90;;;;;;4179203;28;20104;-78
2021/06/25 07:17:59;;;;;;;31.83;26.10;;;17.80;99.90;;;;;;4179052;28;20053;-79
2021/06/25 07:20:07;;;;;;;32.08;27.98;;;17.20;99.90;;;;;;4173078;28;20033;-80
2021/06/25 07:22:11;;;;;;;37.80;28.42;;;17.50;99.90;;;;;;4175892;28;20037;-77
2021/06/25 07:24:17;;;;;;;35.33;27.88;;;17.40;99.90;;;;;;4171529;28;20029;-78
2021/06/25 07:26:20;;;;;;;32.40;26.80;;;17.10;99.90;;;;;;4169977;28;20036;-77
2021/06/25 07:28:21;;;;;;;30.88;27.60;;;16.80;99.90;;;;;;4170568;28;20030;-78
2021/06/25 07:30:22;;;;;;;36.20;28.92;;;16.70;99.90;;;;;;4170872;28;20102;-79
2021/06/25 07:32:23;;;;;;;39.22;29.75;;;16.50;99.90;;;;;;4174940;28;20056;-80
2021/06/25 07:34:25;;;;;;;36.20;29.45;;;16.40;99.90;;;;;;4169381;28;20536;-79
2021/06/25 07:36:26;;;;;;;36.40;28.02;;;16.30;99.90;;;;;;4168527;28;20038;-80
2021/06/25 07:38:27;;;;;;;44.58;29.33;;;16.20;99.90;;;;;;4169168;28;20113;-79
2021/06/25 07:40:28;;;;;;;38.28;30.38;;;16.20;99.90;;;;;;4175445;28;20037;-78
2021/06/25 07:42:29;;;;;;;37.30;29.58;;;16.20;99.90;;;;;;4180112;28;20051;-79
2021/06/25 07:44:30;;;;;;;37.40;29.40;;;16.10;99.90;;;;;;4180130;28;20087;-79
2021/06/25 07:46:31;;;;;;;42.75;31.83;;;16.10;99.90;;;;;;4176225;28;20132;-78
2021/06/25 07:48:31;;;;;;;41.00;30.00;;;16.40;99.90;;;;;;4179826;28;20491;-78
2021/06/25 07:50:32;;;;;;;43.25;30.17;;;16.50;99.90;;;;;;4180104;28;20542;-78
2021/06/25 07:52:33;;;;;;;41.92;31.42;;;16.60;99.90;;;;;;4178333;28;20091;-77
2021/06/25 07:54:34;;;;;;;37.70;30.85;;;16.60;99.90;;;;;;4178423;28;20033;-78
2021/06/25 07:56:35;;;;;;;44.33;31.77;;;16.60;99.90;;;;;;4179564;28;20400;-77
2021/06/25 07:58:35;;;;;;;40.50;31.73;;;16.50;99.90;;;;;;4167964;28;20111;-77
2021/06/25 08:00:36;;;;;;;43.28;33.33;;;16.40;99.90;;;;;;4164354;28;20112;-77
2021/06/25 08:02:40;;;;;;;41.03;31.67;;;16.30;99.90;;;;;;4175697;28;20369;-78
2021/06/25 08:04:45;;;;;;;41.42;33.70;;;16.10;99.90;;;;;;4164615;28;20060;-81
2021/06/25 08:06:47;;;;;;;41.05;32.53;;;15.90;99.90;;;;;;4170035;28;20463;-80
2021/06/25 08:08:49;;;;;;;56.95;34.20;;;15.90;99.90;;;;;;4178757;28;20044;-80
2021/06/25 08:10:52;;;;;;;50.42;35.00;;;15.80;99.90;;;;;;4177108;28;20395;-80
2021/06/25 08:12:52;;;;;;;48.03;36.05;;;15.80;99.90;;;;;;4176247;28;20048;-80
2021/06/25 08:14:56;;;;;;;44.85;35.03;;;15.90;99.90;;;;;;4169843;28;20124;-80
2021/06/25 08:16:58;;;;;;;43.63;33.42;;;15.90;99.90;;;;;;4180295;28;20851;-80
2021/06/25 08:19:07;;;;;;;46.88;32.42;;;16.10;99.90;;;;;;4174406;28;20037;-79
2021/06/25 08:21:14;;;;;;;45.50;34.63;;;16.20;99.90;;;;;;4170388;28;20048;-80
2021/06/25 08:23:21;;;;;;;50.00;33.38;;;16.30;99.90;;;;;;4180228;28;20503;-79
2021/06/25 08:25:22;;;;;;;47.28;33.05;;;16.60;99.90;;;;;;4178526;28;20063;-79
2021/06/25 08:27:29;;;;;;;42.33;34.25;;;16.80;99.90;;;;;;4179987;28;20088;-79
2021/06/25 08:29:32;;;;;;;46.20;31.98;;;16.80;99.90;;;;;;4180002;28;20056;-79
2021/06/25 08:31:32;;;;;;;44.13;31.77;;;17.00;99.90;;;;;;4169590;28;20033;-80
2021/06/25 08:33:39;;;;;;;40.97;31.65;;;17.10;99.90;;;;;;4175850;28;20047;-80
2021/06/25 08:35:40;;;;;;;41.42;34.00;;;17.40;99.90;;;;;;4180013;28;20120;-80
2021/06/25 08:37:42;;;;;;;46.03;33.50;;;17.50;99.90;;;;;;4178412;28;20028;-80
2021/06/25 08:39:42;;;;;;;41.72;30.33;;;17.70;99.90;;;;;;4173054;28;20030;-81
2021/06/25 08:41:53;;;;;;;38.72;31.85;;;17.90;99.90;;;;;;4176235;28;20048;-81
2021/06/25 08:44:03;;;;;;;42.47;32.67;;;18.00;99.90;;;;;;4178483;28;20033;-79
2021/06/25 08:46:21;;;;;;;39.67;31.40;;;18.30;99.90;;;;;;4171462;28;20123;-81
2021/06/25 08:48:28;;;;;;;43.25;32.08;;;18.40;99.90;;;;;;4178588;28;20029;-80
2021/06/25 08:50:39;;;;;;;45.60;34.17;;;18.30;99.90;;;;;;4178893;28;21122;-80
2021/06/25 08:52:43;;;;;;;40.20;31.52;;;18.50;99.90;;;;;;4180098;28;20033;-80
2021/06/25 08:54:44;;;;;;;44.15;31.75;;;18.60;99.90;;;;;;4178328;28;20138;-80
2021/06/25 08:56:46;;;;;;;37.38;30.20;;;18.80;99.90;;;;;;4180182;28;20026;-80
2021/06/25 08:58:47;;;;;;;35.00;28.45;;;19.10;99.90;;;;;;4180050;28;20029;-80
2021/06/25 09:00:53;;;;;;;37.03;30.90;;;19.20;99.90;;;;;;4178654;28;20466;-80
2021/06/25 09:02:55;;;;;;;42.75;31.27;;;19.50;99.90;;;;;;4178474;28;20192;-80
2021/06/25 09:04:56;;;;;;;38.67;31.40;;;19.20;99.90;;;;;;4178287;28;20056;-80
2021/06/25 09:06:56;;;;;;;34.15;29.63;;;19.50;99.90;;;;;;4179447;28;20029;-81
2021/06/25 09:09:12;;;;;;;39.08;30.40;;;19.70;99.90;;;;;;4172733;28;20453;-80
2021/06/25 09:11:24;;;;;;;37.00;29.52;;;19.90;99.90;;;;;;4171848;28;20683;-80
2021/06/25 09:13:33;;;;;;;39.40;31.67;;;;;;;;;;4179197;28;20037;-80
2021/06/25 09:15:41;;;;;;;36.92;31.67;;;20.50;99.90;;;;;;4180227;28;20037;-79
2021/06/25 09:18:01;;;;;;;39.53;31.25;;;20.50;99.90;;;;;;4181881;28;20057;-80
2021/06/25 09:20:05;;;;;;;38.47;31.35;;;20.80;99.90;;;;;;4182158;28;20033;-81
2021/06/25 09:22:07;;;;;;;38.95;31.83;;;21.10;99.90;;;;;;4181005;28;20124;-81
2021/06/25 09:24:23;;;;;;;42.20;33.97;;;20.80;99.90;;;;;;4182619;28;20045;-80
2021/06/25 09:26:30;;;;;;;40.90;30.20;;;21.50;99.90;;;;;;4180969;28;20039;-80
2021/06/25 09:28:37;;;;;;;32.70;28.80;;;21.70;99.90;;;;;;4170029;28;20113;-80
2021/06/25 09:30:43;;;;;;;32.88;27.45;;;;;;;;;;4180476;28;20032;-78
2021/06/25 09:32:43;;;;;;;38.75;31.05;;;22.60;99.90;;;;;;4182166;28;20039;-79
2021/06/25 09:34:50;;;;;;;33.90;28.40;;;22.50;99.90;;;;;;4180928;28;20479;-79
2021/06/25 09:37:00;;;;;;;30.08;26.85;;;22.50;99.90;;;;;;4182501;28;20430;-80
2021/06/25 09:39:13;;;;;;;30.00;26.60;;;22.30;99.90;;;;;;4179330;28;20021;-80
2021/06/25 09:41:19;;;;;;;35.38;28.10;;;22.10;99.90;;;;;;4169787;28;20546;-79
2021/06/25 09:43:34;;;;;;;30.95;27.58;;;21.70;99.90;;;;;;4182206;28;20075;-79
2021/06/25 09:45:50;;;;;;;35.67;28.38;;;21.30;99.90;;;;;;4180571;28;20025;-78
2021/06/25 09:47:54;;;;;;;33.35;27.48;;;21.20;99.90;;;;;;4180760;28;20392;-80
2021/06/25 09:50:12;;;;;;;34.35;26.48;;;21.20;99.90;;;;;;4177904;28;20403;-79
2021/06/25 09:52:13;;;;;;;34.03;29.23;;;21.30;99.90;;;;;;4173049;28;20525;-79
2021/06/25 09:54:15;;;;;;;34.58;27.73;;;21.20;99.90;;;;;;4180476;28;20423;-79
2021/06/25 09:56:25;;;;;;;31.40;28.00;;;21.00;99.90;;;;;;4181766;28;20434;-79
2021/06/25 09:58:40;;;;;;;33.67;28.58;;;21.00;99.90;;;;;;4180247;28;20515;-80
2021/06/25 10:03:16;;;;;;;35.65;28.95;;;20.70;99.90;;;;;;4190703;28;20035;-80
2021/06/25 10:05:17;;;;;;;36.03;30.65;;;20.90;99.90;;;;;;4180657;28;20021;-81
2021/06/25 10:07:28;;;;;;;33.33;27.70;;;21.00;99.90;;;;;;4173593;28;20051;-80
2021/06/25 10:09:29;;;;;;;38.42;27.67;;;21.30;99.90;;;;;;4179744;28;20494;-78
2021/06/25 10:11:32;;;;;;;34.28;28.02;;;21.50;99.90;;;;;;4173053;28;20053;-79
2021/06/25 10:13:37;;;;;;;33.78;28.23;;;21.90;99.90;;;;;;4176074;28;20029;-79
2021/06/25 10:15:38;;;;;;;32.05;26.33;;;22.40;99.90;;;;;;4176569;28;20079;-79
2021/06/25 10:17:38;;;;;;;39.22;29.95;;;22.90;99.90;;;;;;4173197;28;20041;-82
2021/06/25 10:19:44;;;;;;;33.17;29.25;;;23.20;99.90;;;;;;4180653;28;20487;-81
2021/06/25 10:21:45;;;;;;;35.65;28.92;;;23.40;99.90;;;;;;4166785;28;20490;-80
2021/06/25 10:23:55;;;;;;;32.92;26.65;;;23.70;99.90;;;;;;4179459;28;20036;-81
2021/06/25 10:25:57;;;;;;;34.17;29.92;;;23.50;99.90;;;;;;4180522;28;20029;-81
2021/06/25 10:27:58;;;;;;;33.73;29.20;;;23.50;99.90;;;;;;4179924;28;20029;-81
2021/06/25 10:29:59;;;;;;;33.70;29.25;;;23.10;99.90;;;;;;4180023;28;20268;-81
2021/06/25 10:32:09;;;;;;;36.80;29.63;;;22.60;99.90;;;;;;4166772;28;20504;-79
2021/06/25 10:34:09;;;;;;;32.97;29.35;;;22.80;99.90;;;;;;4179264;28;20464;-81
2021/06/25 10:36:15;;;;;;;33.33;27.42;;;23.10;99.90;;;;;;4181490;28;20040;-80
2021/06/25 10:38:19;;;;;;;33.95;30.35;;;23.20;99.90;;;;;;4180105;28;20040;-79
2021/06/25 10:40:31;;;;;;;31.80;28.20;;;22.50;99.90;;;;;;4181410;28;20029;-80
2021/06/25 10:42:40;;;;;;;33.88;29.08;;;22.30;99.90;;;;;;4167527;28;20033;-78
2021/06/25 10:44:46;;;;;;;32.20;28.08;;;22.30;99.90;;;;;;4179889;28;20332;-79